KMEV

Minden-Tahoe Airport

Minden, Nevada, USA
METAR KMEV 191815Z AUTO 00000KT 10SM CLR 19/M04 A3001 RMK AO2
Observed Flight Rules
Sep-19 @ 18:15 UTC (33 minutes ago) Visual Flight Rules
Visibility Clouds
10 miles
  • Clear skies
Temperatures Readings
Current 19°C / 66°F
Dewpoint -4°C / 25°F
Humidity 21%
Altimeter 30.01" Hg
Pressure 1016 hPa
Elevation 1439
METAR KMEV 191815Z AUTO 00000KT 10SM CLR 19/M04 A3001 RMK AO2
Observed Flight Rules
Sep-19 @ 18:15 UTC
(33 minutes ago)
VFR
Clouds
  • Clear skies
Temperature Dewpoint
19°C / 66°F -4°C / 25°F
Humidity Altimeter Pressure
21% 30.01" Hg 1016 hPa